PHMAS LOWS-LQPD
Flight info
| Callsign | PHMAS |
|---|---|
| Flight time | 1h 13m |
| Altitude | 25000 |
| Route | VERDA DCT KFT DCT KUSIB |
| Aircraft | PC12/L-SDFGRWY/S |
Departure
| Time | 2026-05-05 12:45 |
|---|---|
| Airport | Salzburg Airport (LOWS) |
Arrival
| Time | 2026-05-05 13:58 |
|---|---|
| Airport | Prijedor Urije Airfield (LQPD) |
| Time | Latitude | Longitude | Altitude | Speed | Heading |
|---|---|---|---|---|---|
| 2026-05-05 12:32 | 47.79558 | 12.99795 | 1418 ft | 0 kts | 334° |
| 2026-05-05 12:41 | 47.79558 | 12.99794 | 1418 ft | 1 kts | 336° |
| 2026-05-05 12:42 | 47.79585 | 12.99807 | 1417 ft | 8 kts | 61° |
| 2026-05-05 12:42 | 47.79562 | 12.99902 | 1418 ft | 9 kts | 124° |
| 2026-05-05 12:42 | 47.79602 | 12.99952 | 1418 ft | 11 kts | 348° |
| 2026-05-05 12:42 | 47.79686 | 12.99901 | 1417 ft | 16 kts | 346° |
| 2026-05-05 12:43 | 47.79797 | 12.99839 | 1418 ft | 19 kts | 335° |
| 2026-05-05 12:43 | 47.79928 | 12.99750 | 1417 ft | 22 kts | 338° |
| 2026-05-05 12:43 | 47.80073 | 12.99657 | 1418 ft | 23 kts | 339° |
| 2026-05-05 12:43 | 47.80201 | 12.99589 | 1419 ft | 11 kts | 351° |
| 2026-05-05 12:44 | 47.80262 | 12.99656 | 1419 ft | 14 kts | 62° |
| 2026-05-05 12:44 | 47.80247 | 12.99800 | 1416 ft | 17 kts | 129° |
| 2026-05-05 12:44 | 47.80049 | 12.99954 | 1415 ft | 60 kts | 154° |
| 2026-05-05 12:44 | 47.79513 | 13.00282 | 1470 ft | 98 kts | 158° |
| 2026-05-05 12:45 | 47.78824 | 13.00625 | 1767 ft | 111 kts | 160° |
| 2026-05-05 12:45 | 47.78035 | 13.00972 | 2130 ft | 127 kts | 164° |
| 2026-05-05 12:45 | 47.77038 | 13.01280 | 2325 ft | 161 kts | 174° |
| 2026-05-05 12:45 | 47.75904 | 13.01586 | 2875 ft | 168 kts | 165° |
| 2026-05-05 12:46 | 47.74801 | 13.02389 | 3381 ft | 180 kts | 144° |
| 2026-05-05 12:46 | 47.73954 | 13.03772 | 4004 ft | 181 kts | 122° |
| 2026-05-05 12:46 | 47.73519 | 13.05549 | 4546 ft | 188 kts | 99° |
| 2026-05-05 12:46 | 47.73589 | 13.07483 | 5065 ft | 189 kts | 76° |
| 2026-05-05 12:47 | 47.74184 | 13.09227 | 5631 ft | 192 kts | 52° |
| 2026-05-05 12:47 | 47.75210 | 13.10505 | 6090 ft | 196 kts | 29° |
| 2026-05-05 12:47 | 47.76502 | 13.11097 | 6520 ft | 198 kts | 5° |
| 2026-05-05 12:47 | 47.77875 | 13.10897 | 7035 ft | 200 kts | 343° |
| 2026-05-05 12:48 | 47.79108 | 13.09930 | 7527 ft | 200 kts | 319° |
| 2026-05-05 12:48 | 47.79994 | 13.08357 | 8004 ft | 199 kts | 296° |
| 2026-05-05 12:48 | 47.80689 | 13.06573 | 8438 ft | 203 kts | 307° |
| 2026-05-05 12:48 | 47.81751 | 13.05234 | 8925 ft | 205 kts | 327° |
| 2026-05-05 12:49 | 47.83062 | 13.04362 | 9365 ft | 209 kts | 342° |
| 2026-05-05 12:49 | 47.84471 | 13.03751 | 9779 ft | 212 kts | 341° |
| 2026-05-05 12:49 | 47.85876 | 13.03090 | 10182 ft | 212 kts | 342° |
| 2026-05-05 12:49 | 47.87353 | 13.03056 | 10548 ft | 216 kts | 14° |
| 2026-05-05 12:50 | 47.88674 | 13.04099 | 10918 ft | 218 kts | 40° |
| 2026-05-05 12:50 | 47.89821 | 13.05591 | 11296 ft | 221 kts | 43° |
| 2026-05-05 12:50 | 47.90966 | 13.07129 | 11668 ft | 227 kts | 42° |
| 2026-05-05 12:50 | 47.92142 | 13.08768 | 12051 ft | 229 kts | 51° |
| 2026-05-05 12:51 | 47.92831 | 13.10855 | 12426 ft | 229 kts | 79° |
| 2026-05-05 12:51 | 47.92911 | 13.13203 | 12811 ft | 227 kts | 95° |
| 2026-05-05 12:51 | 47.92834 | 13.15569 | 13210 ft | 230 kts | 96° |
| 2026-05-05 12:51 | 47.92754 | 13.17957 | 13600 ft | 231 kts | 96° |
| 2026-05-05 12:52 | 47.92356 | 13.20233 | 13948 ft | 226 kts | 122° |
| 2026-05-05 12:52 | 47.91361 | 13.21986 | 14307 ft | 220 kts | 146° |
| 2026-05-05 12:52 | 47.89999 | 13.22941 | 14675 ft | 215 kts | 169° |
| 2026-05-05 12:52 | 47.88550 | 13.23368 | 15029 ft | 215 kts | 172° |
| 2026-05-05 12:53 | 47.87077 | 13.23777 | 15398 ft | 215 kts | 172° |
| 2026-05-05 12:53 | 47.85601 | 13.24194 | 15769 ft | 216 kts | 172° |
| 2026-05-05 12:53 | 47.84124 | 13.24616 | 16151 ft | 216 kts | 172° |
| 2026-05-05 12:53 | 47.82647 | 13.25038 | 16529 ft | 216 kts | 172° |
| 2026-05-05 12:54 | 47.79687 | 13.25880 | 17316 ft | 217 kts | 172° |
| 2026-05-05 12:54 | 47.78203 | 13.26301 | 17650 ft | 218 kts | 172° |
| 2026-05-05 12:54 | 47.76704 | 13.26726 | 17921 ft | 221 kts | 172° |
| 2026-05-05 12:55 | 47.75186 | 13.27157 | 18172 ft | 222 kts | 172° |
| 2026-05-05 12:55 | 47.73662 | 13.27588 | 18406 ft | 224 kts | 172° |
| 2026-05-05 12:55 | 47.72126 | 13.28023 | 18640 ft | 225 kts | 172° |
| 2026-05-05 12:55 | 47.70601 | 13.28456 | 18869 ft | 227 kts | 172° |
| 2026-05-05 12:56 | 47.69048 | 13.28896 | 19108 ft | 226 kts | 172° |
| 2026-05-05 12:56 | 47.67496 | 13.29336 | 19356 ft | 228 kts | 172° |
| 2026-05-05 12:56 | 47.65936 | 13.29777 | 19594 ft | 229 kts | 172° |
| 2026-05-05 12:56 | 47.64366 | 13.30221 | 19840 ft | 230 kts | 172° |
| 2026-05-05 12:57 | 47.62796 | 13.30665 | 20089 ft | 230 kts | 172° |
| 2026-05-05 12:57 | 47.61217 | 13.31111 | 20330 ft | 231 kts | 172° |
| 2026-05-05 12:57 | 47.59637 | 13.31557 | 20593 ft | 232 kts | 172° |
| 2026-05-05 12:57 | 47.58053 | 13.32004 | 20839 ft | 232 kts | 172° |
| 2026-05-05 12:58 | 47.56487 | 13.32446 | 21095 ft | 232 kts | 172° |
| 2026-05-05 12:58 | 47.54903 | 13.32892 | 21351 ft | 232 kts | 172° |
| 2026-05-05 12:58 | 47.53374 | 13.33547 | 21608 ft | 230 kts | 155° |
| 2026-05-05 12:58 | 47.52108 | 13.35021 | 21888 ft | 234 kts | 140° |
| 2026-05-05 12:59 | 47.50930 | 13.36692 | 22149 ft | 236 kts | 140° |
| 2026-05-05 12:59 | 47.49739 | 13.38373 | 22419 ft | 238 kts | 140° |
| 2026-05-05 12:59 | 47.48529 | 13.40060 | 22672 ft | 240 kts | 140° |
| 2026-05-05 13:00 | 47.46044 | 13.43521 | 22940 ft | 248 kts | 140° |
| 2026-05-05 13:00 | 47.44783 | 13.45280 | 23084 ft | 250 kts | 140° |
| 2026-05-05 13:01 | 47.40953 | 13.50610 | 23493 ft | 255 kts | 140° |
| 2026-05-05 13:01 | 47.39658 | 13.52410 | 23611 ft | 256 kts | 140° |
| 2026-05-05 13:01 | 47.38358 | 13.54215 | 23733 ft | 256 kts | 140° |
| 2026-05-05 13:01 | 47.37060 | 13.56018 | 23841 ft | 257 kts | 141° |
| 2026-05-05 13:02 | 47.35758 | 13.57826 | 23958 ft | 257 kts | 141° |
| 2026-05-05 13:02 | 47.34469 | 13.59612 | 24076 ft | 257 kts | 140° |
| 2026-05-05 13:02 | 47.33166 | 13.61418 | 24194 ft | 257 kts | 140° |
| 2026-05-05 13:02 | 47.31865 | 13.63219 | 24313 ft | 256 kts | 141° |
| 2026-05-05 13:03 | 47.30567 | 13.65014 | 24437 ft | 255 kts | 140° |
| 2026-05-05 13:03 | 47.29273 | 13.66803 | 24560 ft | 254 kts | 142° |
| 2026-05-05 13:03 | 47.27983 | 13.68586 | 24653 ft | 255 kts | 141° |
| 2026-05-05 13:03 | 47.26679 | 13.70385 | 24727 ft | 256 kts | 142° |
| 2026-05-05 13:04 | 47.25380 | 13.72178 | 24803 ft | 257 kts | 141° |
| 2026-05-05 13:04 | 47.24074 | 13.73980 | 24878 ft | 257 kts | 141° |
| 2026-05-05 13:04 | 47.22780 | 13.75763 | 24887 ft | 260 kts | 142° |
| 2026-05-05 13:04 | 47.21452 | 13.77588 | 24892 ft | 263 kts | 141° |
| 2026-05-05 13:05 | 47.20108 | 13.79436 | 24886 ft | 263 kts | 141° |
| 2026-05-05 13:05 | 47.18759 | 13.81291 | 24895 ft | 265 kts | 141° |
| 2026-05-05 13:05 | 47.17427 | 13.83120 | 24896 ft | 266 kts | 141° |
| 2026-05-05 13:05 | 47.16068 | 13.84986 | 24899 ft | 267 kts | 141° |
| 2026-05-05 13:06 | 47.14711 | 13.86848 | 24905 ft | 267 kts | 141° |
| 2026-05-05 13:06 | 47.13350 | 13.88715 | 24901 ft | 267 kts | 142° |
| 2026-05-05 13:06 | 47.11993 | 13.90573 | 24904 ft | 267 kts | 142° |
| 2026-05-05 13:06 | 47.10641 | 13.92424 | 24905 ft | 266 kts | 141° |
| 2026-05-05 13:07 | 47.09287 | 13.94276 | 24910 ft | 266 kts | 141° |
| 2026-05-05 13:07 | 47.07950 | 13.96105 | 24905 ft | 265 kts | 141° |
| 2026-05-05 13:07 | 47.06601 | 13.97948 | 24911 ft | 264 kts | 142° |
| 2026-05-05 13:07 | 47.05258 | 13.99779 | 24909 ft | 263 kts | 141° |
| 2026-05-05 13:08 | 47.03909 | 14.01618 | 24912 ft | 264 kts | 142° |
| 2026-05-05 13:08 | 47.02559 | 14.03456 | 24917 ft | 264 kts | 142° |
| 2026-05-05 13:08 | 47.01210 | 14.05291 | 24920 ft | 264 kts | 141° |
| 2026-05-05 13:08 | 46.99878 | 14.07103 | 24917 ft | 264 kts | 141° |
| 2026-05-05 13:09 | 46.98533 | 14.08935 | 24923 ft | 264 kts | 142° |
| 2026-05-05 13:09 | 46.97209 | 14.10735 | 24921 ft | 263 kts | 142° |
| 2026-05-05 13:09 | 46.95864 | 14.12561 | 24925 ft | 263 kts | 141° |
| 2026-05-05 13:09 | 46.94519 | 14.14386 | 24929 ft | 263 kts | 141° |
| 2026-05-05 13:10 | 46.93177 | 14.16204 | 24932 ft | 262 kts | 142° |
| 2026-05-05 13:10 | 46.91836 | 14.18020 | 24935 ft | 263 kts | 141° |
| 2026-05-05 13:10 | 46.90487 | 14.19848 | 24941 ft | 264 kts | 141° |
| 2026-05-05 13:10 | 46.89148 | 14.21660 | 24942 ft | 265 kts | 142° |
| 2026-05-05 13:11 | 46.87792 | 14.23494 | 24946 ft | 267 kts | 141° |
| 2026-05-05 13:11 | 46.86424 | 14.25339 | 24950 ft | 268 kts | 142° |
| 2026-05-05 13:11 | 46.85055 | 14.27187 | 24952 ft | 268 kts | 142° |
| 2026-05-05 13:11 | 46.83680 | 14.29044 | 24957 ft | 269 kts | 142° |
| 2026-05-05 13:12 | 46.82299 | 14.30906 | 24959 ft | 271 kts | 142° |
| 2026-05-05 13:12 | 46.80910 | 14.32777 | 24961 ft | 271 kts | 141° |
| 2026-05-05 13:12 | 46.79520 | 14.34647 | 24961 ft | 271 kts | 141° |
| 2026-05-05 13:12 | 46.78129 | 14.36518 | 24962 ft | 272 kts | 142° |
| 2026-05-05 13:13 | 46.76754 | 14.38367 | 24967 ft | 272 kts | 142° |
| 2026-05-05 13:13 | 46.75357 | 14.40244 | 24965 ft | 273 kts | 142° |
| 2026-05-05 13:13 | 46.73953 | 14.42128 | 24965 ft | 273 kts | 142° |
| 2026-05-05 13:13 | 46.72552 | 14.44007 | 24966 ft | 274 kts | 142° |
| 2026-05-05 13:14 | 46.71147 | 14.45890 | 24966 ft | 274 kts | 142° |
| 2026-05-05 13:14 | 46.69761 | 14.47746 | 24965 ft | 274 kts | 142° |
| 2026-05-05 13:14 | 46.68357 | 14.49624 | 24963 ft | 274 kts | 142° |
| 2026-05-05 13:14 | 46.66955 | 14.51500 | 24959 ft | 274 kts | 142° |
| 2026-05-05 13:15 | 46.65548 | 14.53379 | 24960 ft | 274 kts | 143° |
| 2026-05-05 13:15 | 46.64146 | 14.55251 | 24958 ft | 273 kts | 142° |
| 2026-05-05 13:15 | 46.62744 | 14.57123 | 24958 ft | 273 kts | 142° |
| 2026-05-05 13:15 | 46.61342 | 14.58993 | 24956 ft | 273 kts | 142° |
| 2026-05-05 13:16 | 46.59938 | 14.60863 | 24952 ft | 273 kts | 143° |
| 2026-05-05 13:16 | 46.58540 | 14.62723 | 24955 ft | 272 kts | 143° |
| 2026-05-05 13:16 | 46.57143 | 14.64582 | 24951 ft | 273 kts | 142° |
| 2026-05-05 13:16 | 46.55745 | 14.66440 | 24951 ft | 272 kts | 142° |
| 2026-05-05 13:17 | 46.54365 | 14.68273 | 24946 ft | 272 kts | 142° |
| 2026-05-05 13:17 | 46.52966 | 14.70130 | 24946 ft | 272 kts | 142° |
| 2026-05-05 13:17 | 46.51563 | 14.71990 | 24951 ft | 273 kts | 143° |
| 2026-05-05 13:17 | 46.50160 | 14.73850 | 24948 ft | 274 kts | 142° |
| 2026-05-05 13:18 | 46.48751 | 14.75717 | 24947 ft | 274 kts | 143° |
| 2026-05-05 13:18 | 46.47344 | 14.77580 | 24951 ft | 273 kts | 142° |
| 2026-05-05 13:18 | 46.45942 | 14.79434 | 24954 ft | 273 kts | 142° |
| 2026-05-05 13:18 | 46.44539 | 14.81289 | 24955 ft | 273 kts | 142° |
| 2026-05-05 13:19 | 46.43139 | 14.83137 | 24951 ft | 272 kts | 142° |
| 2026-05-05 13:19 | 46.41738 | 14.84986 | 24953 ft | 272 kts | 143° |
| 2026-05-05 13:19 | 46.40341 | 14.86830 | 24959 ft | 272 kts | 143° |
| 2026-05-05 13:19 | 46.38944 | 14.88673 | 24953 ft | 271 kts | 143° |
| 2026-05-05 13:20 | 46.37552 | 14.90504 | 24953 ft | 270 kts | 142° |
| 2026-05-05 13:20 | 46.36178 | 14.92311 | 24954 ft | 270 kts | 144° |
| 2026-05-05 13:20 | 46.34788 | 14.94139 | 24953 ft | 269 kts | 142° |
| 2026-05-05 13:20 | 46.33403 | 14.95959 | 24956 ft | 269 kts | 144° |
| 2026-05-05 13:21 | 46.32014 | 14.97783 | 24956 ft | 269 kts | 143° |
| 2026-05-05 13:21 | 46.30628 | 14.99601 | 24920 ft | 268 kts | 143° |
| 2026-05-05 13:21 | 46.29250 | 15.01406 | 24797 ft | 266 kts | 142° |
| 2026-05-05 13:21 | 46.27885 | 15.03195 | 24682 ft | 264 kts | 142° |
| 2026-05-05 13:22 | 46.26531 | 15.04972 | 24562 ft | 263 kts | 144° |
| 2026-05-05 13:22 | 46.25176 | 15.06743 | 24445 ft | 262 kts | 143° |
| 2026-05-05 13:22 | 46.23821 | 15.08515 | 24328 ft | 262 kts | 144° |
| 2026-05-05 13:22 | 46.22486 | 15.10259 | 24217 ft | 261 kts | 143° |
| 2026-05-05 13:23 | 46.21134 | 15.12022 | 24099 ft | 262 kts | 143° |
| 2026-05-05 13:23 | 46.19781 | 15.13788 | 23984 ft | 262 kts | 143° |
| 2026-05-05 13:23 | 46.18425 | 15.15558 | 23868 ft | 263 kts | 143° |
| 2026-05-05 13:23 | 46.17065 | 15.17329 | 23758 ft | 264 kts | 143° |
| 2026-05-05 13:24 | 46.15698 | 15.19109 | 23642 ft | 264 kts | 142° |
| 2026-05-05 13:24 | 46.14346 | 15.20868 | 23529 ft | 264 kts | 143° |
| 2026-05-05 13:24 | 46.12977 | 15.22647 | 23396 ft | 264 kts | 142° |
| 2026-05-05 13:24 | 46.11609 | 15.24426 | 23266 ft | 265 kts | 143° |
| 2026-05-05 13:25 | 46.10237 | 15.26207 | 23123 ft | 265 kts | 143° |
| 2026-05-05 13:25 | 46.08863 | 15.27990 | 22990 ft | 266 kts | 143° |
| 2026-05-05 13:25 | 46.07486 | 15.29775 | 22857 ft | 266 kts | 143° |
| 2026-05-05 13:25 | 46.06114 | 15.31554 | 22725 ft | 266 kts | 142° |
| 2026-05-05 13:26 | 46.04737 | 15.33336 | 22589 ft | 265 kts | 142° |
| 2026-05-05 13:26 | 46.03380 | 15.35093 | 22460 ft | 265 kts | 142° |
| 2026-05-05 13:26 | 46.02007 | 15.36868 | 22326 ft | 265 kts | 143° |
| 2026-05-05 13:26 | 46.00630 | 15.38646 | 22195 ft | 265 kts | 143° |
| 2026-05-05 13:27 | 45.99255 | 15.40422 | 22066 ft | 265 kts | 143° |
| 2026-05-05 13:27 | 45.97880 | 15.42197 | 21934 ft | 265 kts | 143° |
| 2026-05-05 13:27 | 45.96504 | 15.43971 | 21804 ft | 265 kts | 143° |
| 2026-05-05 13:27 | 45.95124 | 15.45749 | 21672 ft | 266 kts | 143° |
| 2026-05-05 13:28 | 45.93765 | 15.47499 | 21546 ft | 265 kts | 143° |
| 2026-05-05 13:28 | 45.92392 | 15.49266 | 21412 ft | 265 kts | 143° |
| 2026-05-05 13:28 | 45.91015 | 15.51037 | 21287 ft | 265 kts | 143° |
| 2026-05-05 13:28 | 45.89627 | 15.52747 | 21156 ft | 260 kts | 150° |
| 2026-05-05 13:29 | 45.87959 | 15.53553 | 21015 ft | 251 kts | 178° |
| 2026-05-05 13:29 | 45.86240 | 15.53600 | 21001 ft | 245 kts | 185° |
| 2026-05-05 13:29 | 45.84549 | 15.53516 | 20999 ft | 241 kts | 186° |
| 2026-05-05 13:29 | 45.82878 | 15.53416 | 20993 ft | 239 kts | 186° |
| 2026-05-05 13:30 | 45.81247 | 15.53316 | 20995 ft | 236 kts | 186° |
| 2026-05-05 13:30 | 45.79607 | 15.53218 | 20993 ft | 235 kts | 187° |
| 2026-05-05 13:30 | 45.77979 | 15.53120 | 20993 ft | 234 kts | 187° |
| 2026-05-05 13:30 | 45.76349 | 15.53020 | 20991 ft | 234 kts | 187° |
| 2026-05-05 13:31 | 45.75273 | 15.52952 | 20992 ft | 234 kts | 187° |
| 2026-05-05 13:31 | 45.73634 | 15.52847 | 20875 ft | 238 kts | 186° |
| 2026-05-05 13:31 | 45.71969 | 15.52738 | 20749 ft | 241 kts | 187° |
| 2026-05-05 13:31 | 45.70284 | 15.52625 | 20627 ft | 243 kts | 187° |
| 2026-05-05 13:32 | 45.68606 | 15.52968 | 20504 ft | 252 kts | 160° |
| 2026-05-05 13:32 | 45.67132 | 15.54361 | 20391 ft | 256 kts | 146° |
| 2026-05-05 13:32 | 45.65759 | 15.55991 | 20278 ft | 258 kts | 144° |
| 2026-05-05 13:32 | 45.64396 | 15.57658 | 20152 ft | 259 kts | 143° |
| 2026-05-05 13:33 | 45.63024 | 15.59339 | 20026 ft | 260 kts | 143° |
| 2026-05-05 13:33 | 45.61647 | 15.61021 | 19909 ft | 261 kts | 143° |
| 2026-05-05 13:33 | 45.60261 | 15.62711 | 19785 ft | 262 kts | 143° |
| 2026-05-05 13:33 | 45.58888 | 15.64381 | 19666 ft | 263 kts | 143° |
| 2026-05-05 13:34 | 45.57496 | 15.66071 | 19548 ft | 262 kts | 143° |
| 2026-05-05 13:34 | 45.56102 | 15.67747 | 19423 ft | 260 kts | 146° |
| 2026-05-05 13:34 | 45.54544 | 15.68972 | 19301 ft | 254 kts | 161° |
| 2026-05-05 13:34 | 45.52896 | 15.69869 | 19180 ft | 253 kts | 164° |
| 2026-05-05 13:35 | 45.51258 | 15.70700 | 19061 ft | 253 kts | 164° |
| 2026-05-05 13:35 | 45.49596 | 15.71531 | 18950 ft | 253 kts | 165° |
| 2026-05-05 13:35 | 45.47935 | 15.72359 | 18827 ft | 253 kts | 165° |
| 2026-05-05 13:35 | 45.46275 | 15.73186 | 18533 ft | 251 kts | 165° |
| 2026-05-05 13:36 | 45.44636 | 15.74001 | 18165 ft | 248 kts | 165° |
| 2026-05-05 13:36 | 45.43014 | 15.74807 | 17766 ft | 245 kts | 165° |
| 2026-05-05 13:36 | 45.41413 | 15.75606 | 17372 ft | 243 kts | 165° |
| 2026-05-05 13:36 | 45.39823 | 15.76402 | 16981 ft | 241 kts | 165° |
| 2026-05-05 13:37 | 45.38243 | 15.77196 | 16556 ft | 242 kts | 165° |
| 2026-05-05 13:37 | 45.36666 | 15.77988 | 16102 ft | 243 kts | 165° |
| 2026-05-05 13:37 | 45.35072 | 15.78790 | 15658 ft | 243 kts | 165° |
| 2026-05-05 13:37 | 45.33476 | 15.79594 | 15210 ft | 243 kts | 165° |
| 2026-05-05 13:38 | 45.31885 | 15.80399 | 14773 ft | 242 kts | 165° |
| 2026-05-05 13:38 | 45.30315 | 15.81258 | 14349 ft | 243 kts | 158° |
| 2026-05-05 13:38 | 45.28965 | 15.82733 | 13928 ft | 248 kts | 136° |
| 2026-05-05 13:38 | 45.27924 | 15.84700 | 13474 ft | 249 kts | 128° |
| 2026-05-05 13:39 | 45.26969 | 15.86751 | 12998 ft | 248 kts | 124° |
| 2026-05-05 13:39 | 45.26234 | 15.88938 | 12539 ft | 249 kts | 117° |
| 2026-05-05 13:39 | 45.25582 | 15.91217 | 12084 ft | 249 kts | 116° |
| 2026-05-05 13:39 | 45.24945 | 15.93501 | 11632 ft | 248 kts | 116° |
| 2026-05-05 13:40 | 45.24318 | 15.95776 | 11187 ft | 247 kts | 115° |
| 2026-05-05 13:40 | 45.23695 | 15.98042 | 10750 ft | 246 kts | 116° |
| 2026-05-05 13:40 | 45.23084 | 16.00285 | 10463 ft | 238 kts | 116° |
| 2026-05-05 13:40 | 45.22514 | 16.02430 | 10268 ft | 228 kts | 116° |
| 2026-05-05 13:41 | 45.21971 | 16.04508 | 10079 ft | 221 kts | 115° |
| 2026-05-05 13:41 | 45.21458 | 16.06492 | 9998 ft | 211 kts | 115° |
| 2026-05-05 13:41 | 45.20958 | 16.08439 | 9993 ft | 208 kts | 116° |
| 2026-05-05 13:41 | 45.20467 | 16.10346 | 9990 ft | 204 kts | 116° |
| 2026-05-05 13:42 | 45.19989 | 16.12223 | 9990 ft | 201 kts | 116° |
| 2026-05-05 13:42 | 45.19515 | 16.14087 | 9990 ft | 200 kts | 116° |
| 2026-05-05 13:42 | 45.19042 | 16.15940 | 9989 ft | 200 kts | 116° |
| 2026-05-05 13:42 | 45.18567 | 16.17792 | 9971 ft | 200 kts | 115° |
| 2026-05-05 13:43 | 45.18082 | 16.19656 | 9719 ft | 205 kts | 116° |
| 2026-05-05 13:43 | 45.17586 | 16.21551 | 9458 ft | 205 kts | 116° |
| 2026-05-05 13:43 | 45.17091 | 16.23455 | 9192 ft | 205 kts | 116° |
| 2026-05-05 13:43 | 45.16607 | 16.25351 | 8932 ft | 204 kts | 116° |
| 2026-05-05 13:44 | 45.16081 | 16.27187 | 8671 ft | 198 kts | 122° |
| 2026-05-05 13:44 | 45.15455 | 16.28918 | 8421 ft | 198 kts | 123° |
| 2026-05-05 13:44 | 45.14754 | 16.30571 | 8165 ft | 194 kts | 131° |
| 2026-05-05 13:44 | 45.13962 | 16.32121 | 7915 ft | 194 kts | 132° |
| 2026-05-05 13:45 | 45.13154 | 16.33659 | 7664 ft | 194 kts | 133° |
| 2026-05-05 13:45 | 45.12356 | 16.35169 | 7425 ft | 194 kts | 133° |
| 2026-05-05 13:45 | 45.11547 | 16.36708 | 7175 ft | 195 kts | 133° |
| 2026-05-05 13:45 | 45.10767 | 16.38207 | 6924 ft | 181 kts | 133° |
| 2026-05-05 13:46 | 45.10058 | 16.39596 | 6671 ft | 168 kts | 133° |
| 2026-05-05 13:46 | 45.09403 | 16.40909 | 6432 ft | 159 kts | 133° |
| 2026-05-05 13:46 | 45.08785 | 16.42175 | 6177 ft | 153 kts | 133° |
| 2026-05-05 13:46 | 45.08189 | 16.43412 | 5916 ft | 150 kts | 133° |
| 2026-05-05 13:47 | 45.07620 | 16.44605 | 5667 ft | 147 kts | 133° |
| 2026-05-05 13:47 | 45.07047 | 16.45808 | 5414 ft | 147 kts | 133° |
| 2026-05-05 13:47 | 45.06481 | 16.47012 | 5166 ft | 146 kts | 133° |
| 2026-05-05 13:47 | 45.05919 | 16.48212 | 4916 ft | 146 kts | 133° |
| 2026-05-05 13:48 | 45.05361 | 16.49408 | 4668 ft | 146 kts | 129° |
| 2026-05-05 13:48 | 45.05049 | 16.50823 | 4416 ft | 154 kts | 109° |
| 2026-05-05 13:48 | 45.04851 | 16.52325 | 4179 ft | 156 kts | 109° |
| 2026-05-05 13:48 | 45.04624 | 16.53842 | 3926 ft | 156 kts | 117° |
| 2026-05-05 13:49 | 45.04161 | 16.55217 | 3679 ft | 153 kts | 125° |
| 2026-05-05 13:49 | 45.03653 | 16.56544 | 3418 ft | 154 kts | 126° |
| 2026-05-05 13:49 | 45.03142 | 16.57883 | 3171 ft | 156 kts | 125° |
| 2026-05-05 13:49 | 45.02640 | 16.59222 | 2916 ft | 152 kts | 126° |
| 2026-05-05 13:50 | 45.02148 | 16.60548 | 2672 ft | 151 kts | 125° |
| 2026-05-05 13:50 | 45.01671 | 16.61828 | 2533 ft | 147 kts | 127° |
| 2026-05-05 13:50 | 45.01186 | 16.63106 | 2501 ft | 147 kts | 124° |
| 2026-05-05 13:50 | 45.00717 | 16.64322 | 2523 ft | 139 kts | 126° |
| 2026-05-05 13:51 | 45.00258 | 16.65544 | 2514 ft | 140 kts | 126° |
| 2026-05-05 13:51 | 44.99794 | 16.66765 | 2461 ft | 144 kts | 126° |
| 2026-05-05 13:51 | 44.99305 | 16.68026 | 2378 ft | 148 kts | 125° |
| 2026-05-05 13:51 | 44.98802 | 16.69298 | 2307 ft | 149 kts | 126° |
| 2026-05-05 13:52 | 44.98297 | 16.70585 | 2224 ft | 151 kts | 127° |
| 2026-05-05 13:52 | 44.97808 | 16.71884 | 2144 ft | 147 kts | 125° |
| 2026-05-05 13:52 | 44.97371 | 16.73049 | 2074 ft | 125 kts | 127° |
| 2026-05-05 13:52 | 44.97004 | 16.74095 | 2005 ft | 110 kts | 126° |
| 2026-05-05 13:53 | 44.96741 | 16.75061 | 1921 ft | 106 kts | 111° |
| 2026-05-05 13:53 | 44.96746 | 16.76128 | 1845 ft | 109 kts | 95° |
| 2026-05-05 13:53 | 44.96773 | 16.77166 | 1772 ft | 106 kts | 97° |
| 2026-05-05 13:53 | 44.96792 | 16.78188 | 1694 ft | 103 kts | 96° |
| 2026-05-05 13:54 | 44.96813 | 16.79196 | 1608 ft | 100 kts | 97° |
| 2026-05-05 13:54 | 44.96849 | 16.80176 | 1521 ft | 101 kts | 97° |
| 2026-05-05 13:54 | 44.96903 | 16.81117 | 1514 ft | 95 kts | 87° |
| 2026-05-05 13:54 | 44.97257 | 16.81951 | 1523 ft | 108 kts | 46° |
| 2026-05-05 13:55 | 44.97940 | 16.82418 | 1521 ft | 113 kts | 2° |
| 2026-05-05 13:55 | 44.98666 | 16.82637 | 1514 ft | 117 kts | 7° |
| 2026-05-05 13:55 | 44.99413 | 16.82590 | 1511 ft | 103 kts | 316° |
| 2026-05-05 13:55 | 44.99673 | 16.81797 | 1517 ft | 87 kts | 268° |
| 2026-05-05 13:56 | 44.99812 | 16.80955 | 1515 ft | 91 kts | 272° |
| 2026-05-05 13:56 | 44.99954 | 16.80070 | 1465 ft | 93 kts | 268° |
| 2026-05-05 13:56 | 45.00045 | 16.79195 | 1375 ft | 87 kts | 254° |
| 2026-05-05 13:56 | 44.99981 | 16.78375 | 1306 ft | 78 kts | 254° |
| 2026-05-05 13:57 | 44.99872 | 16.77672 | 1136 ft | 70 kts | 233° |
| 2026-05-05 13:57 | 44.99640 | 16.77092 | 1020 ft | 70 kts | 233° |
| 2026-05-05 13:57 | 44.99509 | 16.76420 | 915 ft | 74 kts | 247° |
| 2026-05-05 13:57 | 44.99428 | 16.75731 | 817 ft | 70 kts | 253° |
| 2026-05-05 13:58 | 44.99406 | 16.75048 | 752 ft | 68 kts | 258° |
| 2026-05-05 13:58 | 44.99406 | 16.74402 | 624 ft | 63 kts | 258° |
| 2026-05-05 13:58 | 44.99387 | 16.73856 | 561 ft | 43 kts | 265° |
| 2026-05-05 13:58 | 44.99388 | 16.73720 | 558 ft | 8 kts | 277° |
| 2026-05-05 13:59 | 44.99377 | 16.73571 | 559 ft | 5 kts | 229° |
| 2026-05-05 13:59 | 44.99323 | 16.73540 | 554 ft | 12 kts | 190° |
| 2026-05-05 14:00 | 44.99152 | 16.73506 | 555 ft | 9 kts | 194° |
| 2026-05-05 14:00 | 44.99139 | 16.73501 | 554 ft | 0 kts | 194° |
| 2026-05-05 14:00 | 44.99130 | 16.73503 | 555 ft | 4 kts | 149° |
| 2026-05-05 14:00 | 44.99136 | 16.73533 | 554 ft | 9 kts | 9° |
| 2026-05-05 14:01 | 44.99149 | 16.73530 | 558 ft | 0 kts | 336° |